sensor_id;sensor_type;location;lat;lon;timestamp;temperature;humidity
25250;DHT22;13201;51.148;13.738;2022-08-19T00:01:20;22.30;99.90
25250;DHT22;13201;51.148;13.738;2022-08-19T00:03:47;22.40;99.90
25250;DHT22;13201;51.148;13.738;2022-08-19T00:06:13;22.30;99.90
25250;DHT22;13201;51.148;13.738;2022-08-19T00:08:39;22.20;99.90
25250;DHT22;13201;51.148;13.738;2022-08-19T00:11:05;22.40;99.90
25250;DHT22;13201;51.148;13.738;2022-08-19T00:13:31;22.20;99.90
25250;DHT22;13201;51.148;13.738;2022-08-19T00:15:57;22.20;99.90
25250;DHT22;13201;51.148;13.738;2022-08-19T00:18:24;22.20;99.90
25250;DHT22;13201;51.148;13.738;2022-08-19T00:20:50;22.20;99.90
25250;DHT22;13201;51.148;13.738;2022-08-19T00:23:15;22.10;99.90
25250;DHT22;13201;51.148;13.738;2022-08-19T00:25:41;22.00;99.90
25250;DHT22;13201;51.148;13.738;2022-08-19T00:28:07;22.00;99.90
25250;DHT22;13201;51.148;13.738;2022-08-19T00:30:33;21.80;99.90
25250;DHT22;13201;51.148;13.738;2022-08-19T00:32:59;21.80;99.90
25250;DHT22;13201;51.148;13.738;2022-08-19T00:35:24;21.80;99.90
25250;DHT22;13201;51.148;13.738;2022-08-19T00:37:53;21.80;99.90
25250;DHT22;13201;51.148;13.738;2022-08-19T00:40:19;21.90;99.90
25250;DHT22;13201;51.148;13.738;2022-08-19T00:42:45;21.80;99.90
25250;DHT22;13201;51.148;13.738;2022-08-19T00:45:22;21.70;99.90
25250;DHT22;13201;51.148;13.738;2022-08-19T00:47:48;21.70;99.90
25250;DHT22;13201;51.148;13.738;2022-08-19T00:50:17;21.70;99.90
25250;DHT22;13201;51.148;13.738;2022-08-19T00:52:47;21.70;99.90
25250;DHT22;13201;51.148;13.738;2022-08-19T00:55:18;21.80;99.90
25250;DHT22;13201;51.148;13.738;2022-08-19T00:57:50;21.80;99.90
25250;DHT22;13201;51.148;13.738;2022-08-19T01:00:18;21.70;99.90
25250;DHT22;13201;51.148;13.738;2022-08-19T01:02:44;21.50;99.90
25250;DHT22;13201;51.148;13.738;2022-08-19T01:05:18;21.60;99.90
25250;DHT22;13201;51.148;13.738;2022-08-19T01:32:20;20.80;99.90
25250;DHT22;13201;51.148;13.738;2022-08-19T01:34:46;20.80;99.90
25250;DHT22;13201;51.148;13.738;2022-08-19T01:37:13;20.80;99.90
25250;DHT22;13201;51.148;13.738;2022-08-19T01:39:40;21.00;99.90
25250;DHT22;13201;51.148;13.738;2022-08-19T01:42:08;21.00;99.90
25250;DHT22;13201;51.148;13.738;2022-08-19T01:44:37;21.00;99.90
25250;DHT22;13201;51.148;13.738;2022-08-19T01:47:03;21.10;99.90
25250;DHT22;13201;51.148;13.738;2022-08-19T01:49:29;21.10;99.90
25250;DHT22;13201;51.148;13.738;2022-08-19T01:51:55;21.10;99.90
25250;DHT22;13201;51.148;13.738;2022-08-19T01:54:22;21.30;99.90
25250;DHT22;13201;51.148;13.738;2022-08-19T01:56:49;21.40;99.90
25250;DHT22;13201;51.148;13.738;2022-08-19T01:59:16;21.40;99.90
25250;DHT22;13201;51.148;13.738;2022-08-19T02:01:42;21.40;99.90
25250;DHT22;13201;51.148;13.738;2022-08-19T02:04:08;21.40;99.90
25250;DHT22;13201;51.148;13.738;2022-08-19T02:06:34;21.40;99.90
25250;DHT22;13201;51.148;13.738;2022-08-19T02:09:00;21.50;99.90
25250;DHT22;13201;51.148;13.738;2022-08-19T02:11:31;21.40;99.90
25250;DHT22;13201;51.148;13.738;2022-08-19T02:14:00;21.50;99.90
25250;DHT22;13201;51.148;13.738;2022-08-19T02:16:27;21.50;99.90
25250;DHT22;13201;51.148;13.738;2022-08-19T02:18:53;21.50;99.90
25250;DHT22;13201;51.148;13.738;2022-08-19T02:21:20;21.50;99.90
25250;DHT22;13201;51.148;13.738;2022-08-19T02:23:47;21.50;99.90
25250;DHT22;13201;51.148;13.738;2022-08-19T02:26:13;21.50;99.90
25250;DHT22;13201;51.148;13.738;2022-08-19T02:28:40;21.40;99.90
25250;DHT22;13201;51.148;13.738;2022-08-19T02:31:15;21.60;99.90
25250;DHT22;13201;51.148;13.738;2022-08-19T02:33:43;21.70;99.90
25250;DHT22;13201;51.148;13.738;2022-08-19T02:36:10;21.70;99.90
25250;DHT22;13201;51.148;13.738;2022-08-19T02:38:37;21.70;99.90
25250;DHT22;13201;51.148;13.738;2022-08-19T02:41:11;21.80;99.90
25250;DHT22;13201;51.148;13.738;2022-08-19T02:43:37;21.80;99.90
25250;DHT22;13201;51.148;13.738;2022-08-19T02:46:38;21.80;99.90
25250;DHT22;13201;51.148;13.738;2022-08-19T02:49:06;22.00;99.90
25250;DHT22;13201;51.148;13.738;2022-08-19T02:51:43;21.90;99.90
25250;DHT22;13201;51.148;13.738;2022-08-19T02:54:11;21.80;99.90
25250;DHT22;13201;51.148;13.738;2022-08-19T02:56:40;21.80;99.90
25250;DHT22;13201;51.148;13.738;2022-08-19T02:59:06;21.80;99.90
25250;DHT22;13201;51.148;13.738;2022-08-19T03:01:38;21.70;99.90
25250;DHT22;13201;51.148;13.738;2022-08-19T03:04:07;21.70;99.90
25250;DHT22;13201;51.148;13.738;2022-08-19T03:06:36;21.70;99.90
25250;DHT22;13201;51.148;13.738;2022-08-19T03:09:02;21.80;99.90
25250;DHT22;13201;51.148;13.738;2022-08-19T03:11:30;21.70;99.90
25250;DHT22;13201;51.148;13.738;2022-08-19T03:13:57;21.80;99.90
25250;DHT22;13201;51.148;13.738;2022-08-19T03:16:25;21.80;99.90
25250;DHT22;13201;51.148;13.738;2022-08-19T03:18:52;22.00;99.90
25250;DHT22;13201;51.148;13.738;2022-08-19T03:21:21;21.80;99.90
25250;DHT22;13201;51.148;13.738;2022-08-19T03:23:47;21.70;99.90
25250;DHT22;13201;51.148;13.738;2022-08-19T03:26:13;21.70;99.90
25250;DHT22;13201;51.148;13.738;2022-08-19T03:28:41;21.70;99.90
25250;DHT22;13201;51.148;13.738;2022-08-19T03:31:11;21.70;99.90
25250;DHT22;13201;51.148;13.738;2022-08-19T03:33:37;21.70;99.90
25250;DHT22;13201;51.148;13.738;2022-08-19T03:38:38;21.70;99.90
25250;DHT22;13201;51.148;13.738;2022-08-19T03:41:07;21.80;99.90
25250;DHT22;13201;51.148;13.738;2022-08-19T03:43:36;21.80;99.90
25250;DHT22;13201;51.148;13.738;2022-08-19T03:46:13;21.80;99.90
25250;DHT22;13201;51.148;13.738;2022-08-19T03:48:40;22.00;99.90
25250;DHT22;13201;51.148;13.738;2022-08-19T03:51:07;22.00;99.90
25250;DHT22;13201;51.148;13.738;2022-08-19T03:53:34;21.90;99.90
25250;DHT22;13201;51.148;13.738;2022-08-19T03:56:00;21.90;99.90
25250;DHT22;13201;51.148;13.738;2022-08-19T03:58:27;21.80;99.90
25250;DHT22;13201;51.148;13.738;2022-08-19T04:00:56;21.70;99.90
25250;DHT22;13201;51.148;13.738;2022-08-19T04:03:23;21.60;99.90
25250;DHT22;13201;51.148;13.738;2022-08-19T04:05:49;21.80;99.90
25250;DHT22;13201;51.148;13.738;2022-08-19T04:08:15;21.80;99.90
25250;DHT22;13201;51.148;13.738;2022-08-19T04:10:46;21.70;99.90
25250;DHT22;13201;51.148;13.738;2022-08-19T04:13:12;21.80;99.90
25250;DHT22;13201;51.148;13.738;2022-08-19T04:15:40;21.90;99.90
25250;DHT22;13201;51.148;13.738;2022-08-19T04:18:09;21.90;99.90
25250;DHT22;13201;51.148;13.738;2022-08-19T04:20:41;22.00;99.90
25250;DHT22;13201;51.148;13.738;2022-08-19T04:23:07;21.90;99.90
25250;DHT22;13201;51.148;13.738;2022-08-19T04:25:40;21.90;99.90
25250;DHT22;13201;51.148;13.738;2022-08-19T04:28:06;22.00;99.90
25250;DHT22;13201;51.148;13.738;2022-08-19T04:30:41;21.90;99.90
25250;DHT22;13201;51.148;13.738;2022-08-19T04:33:08;21.70;99.90
25250;DHT22;13201;51.148;13.738;2022-08-19T04:35:41;21.80;99.90
25250;DHT22;13201;51.148;13.738;2022-08-19T04:38:08;21.80;99.90
25250;DHT22;13201;51.148;13.738;2022-08-19T04:40:39;21.70;99.90
25250;DHT22;13201;51.148;13.738;2022-08-19T04:43:23;21.80;99.90
25250;DHT22;13201;51.148;13.738;2022-08-19T04:45:48;21.80;99.90
25250;DHT22;13201;51.148;13.738;2022-08-19T04:48:15;21.80;99.90
25250;DHT22;13201;51.148;13.738;2022-08-19T04:50:42;21.90;99.90
25250;DHT22;13201;51.148;13.738;2022-08-19T04:53:09;22.00;99.90
25250;DHT22;13201;51.148;13.738;2022-08-19T04:55:37;22.00;99.90
25250;DHT22;13201;51.148;13.738;2022-08-19T04:58:03;21.90;99.90
25250;DHT22;13201;51.148;13.738;2022-08-19T05:00:29;21.90;99.90
25250;DHT22;13201;51.148;13.738;2022-08-19T05:02:54;21.80;99.90
25250;DHT22;13201;51.148;13.738;2022-08-19T05:05:20;21.70;99.90
25250;DHT22;13201;51.148;13.738;2022-08-19T05:07:46;21.90;99.90
25250;DHT22;13201;51.148;13.738;2022-08-19T05:10:12;21.90;99.90
25250;DHT22;13201;51.148;13.738;2022-08-19T05:12:38;21.70;99.90
25250;DHT22;13201;51.148;13.738;2022-08-19T05:15:05;21.70;99.90
25250;DHT22;13201;51.148;13.738;2022-08-19T05:17:32;21.60;99.90
25250;DHT22;13201;51.148;13.738;2022-08-19T05:19:57;21.60;99.90
25250;DHT22;13201;51.148;13.738;2022-08-19T05:22:45;21.50;99.90
25250;DHT22;13201;51.148;13.738;2022-08-19T05:25:13;21.40;99.90
25250;DHT22;13201;51.148;13.738;2022-08-19T05:27:41;21.50;99.90
25250;DHT22;13201;51.148;13.738;2022-08-19T05:30:07;21.40;99.90
25250;DHT22;13201;51.148;13.738;2022-08-19T05:32:33;21.30;99.90
25250;DHT22;13201;51.148;13.738;2022-08-19T05:34:59;21.40;99.90
25250;DHT22;13201;51.148;13.738;2022-08-19T05:37:24;21.40;99.90
25250;DHT22;13201;51.148;13.738;2022-08-19T05:39:53;21.40;99.90
25250;DHT22;13201;51.148;13.738;2022-08-19T05:42:20;21.50;99.90
25250;DHT22;13201;51.148;13.738;2022-08-19T05:44:48;21.40;99.90
25250;DHT22;13201;51.148;13.738;2022-08-19T05:47:15;21.40;99.90
25250;DHT22;13201;51.148;13.738;2022-08-19T05:49:41;21.30;99.90
25250;DHT22;13201;51.148;13.738;2022-08-19T05:52:10;21.40;99.90
25250;DHT22;13201;51.148;13.738;2022-08-19T05:54:37;21.50;99.90
25250;DHT22;13201;51.148;13.738;2022-08-19T05:57:06;21.60;99.90
25250;DHT22;13201;51.148;13.738;2022-08-19T05:59:32;21.70;99.90
25250;DHT22;13201;51.148;13.738;2022-08-19T06:02:01;21.60;99.90
25250;DHT22;13201;51.148;13.738;2022-08-19T06:04:27;21.50;99.90
25250;DHT22;13201;51.148;13.738;2022-08-19T06:06:53;21.40;99.90
25250;DHT22;13201;51.148;13.738;2022-08-19T06:09:20;21.40;99.90
25250;DHT22;13201;51.148;13.738;2022-08-19T06:11:52;21.40;99.90
25250;DHT22;13201;51.148;13.738;2022-08-19T06:14:21;21.40;99.90
25250;DHT22;13201;51.148;13.738;2022-08-19T06:16:48;21.10;99.90
25250;DHT22;13201;51.148;13.738;2022-08-19T06:19:18;21.10;99.90
25250;DHT22;13201;51.148;13.738;2022-08-19T06:21:46;21.30;99.90
25250;DHT22;13201;51.148;13.738;2022-08-19T06:24:15;21.30;99.90
25250;DHT22;13201;51.148;13.738;2022-08-19T06:26:43;21.10;99.90
25250;DHT22;13201;51.148;13.738;2022-08-19T06:29:11;21.30;99.90
25250;DHT22;13201;51.148;13.738;2022-08-19T06:31:40;21.40;99.90
25250;DHT22;13201;51.148;13.738;2022-08-19T06:34:06;21.20;99.90
25250;DHT22;13201;51.148;13.738;2022-08-19T06:36:34;21.20;99.90
25250;DHT22;13201;51.148;13.738;2022-08-19T06:39:03;21.10;99.90
25250;DHT22;13201;51.148;13.738;2022-08-19T06:41:29;21.10;99.90
25250;DHT22;13201;51.148;13.738;2022-08-19T06:43:58;20.90;99.90
25250;DHT22;13201;51.148;13.738;2022-08-19T06:46:24;20.70;99.90
25250;DHT22;13201;51.148;13.738;2022-08-19T06:48:50;21.00;99.90
25250;DHT22;13201;51.148;13.738;2022-08-19T06:51:18;20.90;99.90
25250;DHT22;13201;51.148;13.738;2022-08-19T06:53:49;21.10;99.90
25250;DHT22;13201;51.148;13.738;2022-08-19T06:56:17;21.00;99.90
25250;DHT22;13201;51.148;13.738;2022-08-19T06:58:42;21.10;99.90
25250;DHT22;13201;51.148;13.738;2022-08-19T07:01:09;21.20;99.90
25250;DHT22;13201;51.148;13.738;2022-08-19T07:03:36;21.40;99.90
25250;DHT22;13201;51.148;13.738;2022-08-19T07:06:07;21.30;99.90
25250;DHT22;13201;51.148;13.738;2022-08-19T07:08:33;21.40;99.90
25250;DHT22;13201;51.148;13.738;2022-08-19T07:10:59;21.10;99.90
25250;DHT22;13201;51.148;13.738;2022-08-19T07:13:25;21.20;99.90
25250;DHT22;13201;51.148;13.738;2022-08-19T07:15:51;21.10;99.90
25250;DHT22;13201;51.148;13.738;2022-08-19T07:18:18;21.10;99.90
25250;DHT22;13201;51.148;13.738;2022-08-19T07:20:45;21.20;99.90
25250;DHT22;13201;51.148;13.738;2022-08-19T07:23:10;21.10;99.90
25250;DHT22;13201;51.148;13.738;2022-08-19T07:25:38;21.10;99.90
25250;DHT22;13201;51.148;13.738;2022-08-19T07:28:04;21.10;99.90
25250;DHT22;13201;51.148;13.738;2022-08-19T07:30:30;21.20;99.90
25250;DHT22;13201;51.148;13.738;2022-08-19T07:32:56;21.10;99.90
25250;DHT22;13201;51.148;13.738;2022-08-19T07:35:22;21.10;99.90
25250;DHT22;13201;51.148;13.738;2022-08-19T07:37:49;21.10;99.90
25250;DHT22;13201;51.148;13.738;2022-08-19T07:40:14;21.10;99.90
25250;DHT22;13201;51.148;13.738;2022-08-19T07:42:40;21.10;99.90
25250;DHT22;13201;51.148;13.738;2022-08-19T07:45:08;21.10;99.90
25250;DHT22;13201;51.148;13.738;2022-08-19T07:47:35;21.20;99.90
25250;DHT22;13201;51.148;13.738;2022-08-19T07:50:01;20.90;99.90
25250;DHT22;13201;51.148;13.738;2022-08-19T07:52:29;21.10;99.90
25250;DHT22;13201;51.148;13.738;2022-08-19T07:54:55;21.10;99.90
25250;DHT22;13201;51.148;13.738;2022-08-19T07:57:21;21.10;99.90
25250;DHT22;13201;51.148;13.738;2022-08-19T07:59:46;21.20;99.90
25250;DHT22;13201;51.148;13.738;2022-08-19T08:02:12;21.10;99.90
25250;DHT22;13201;51.148;13.738;2022-08-19T08:04:38;21.00;99.90
25250;DHT22;13201;51.148;13.738;2022-08-19T08:07:22;21.10;99.90
25250;DHT22;13201;51.148;13.738;2022-08-19T08:10:07;21.20;99.90
25250;DHT22;13201;51.148;13.738;2022-08-19T08:12:37;21.20;99.90
25250;DHT22;13201;51.148;13.738;2022-08-19T08:15:12;21.30;99.90
25250;DHT22;13201;51.148;13.738;2022-08-19T08:17:42;21.20;99.90
25250;DHT22;13201;51.148;13.738;2022-08-19T08:20:09;21.20;99.90
25250;DHT22;13201;51.148;13.738;2022-08-19T08:22:35;21.10;99.90
25250;DHT22;13201;51.148;13.738;2022-08-19T08:25:22;21.10;99.90
25250;DHT22;13201;51.148;13.738;2022-08-19T08:27:48;21.10;99.90
25250;DHT22;13201;51.148;13.738;2022-08-19T08:30:20;21.10;99.90
25250;DHT22;13201;51.148;13.738;2022-08-19T08:32:47;21.10;99.90
25250;DHT22;13201;51.148;13.738;2022-08-19T08:35:16;21.20;99.90
25250;DHT22;13201;51.148;13.738;2022-08-19T08:37:43;21.10;99.90
25250;DHT22;13201;51.148;13.738;2022-08-19T08:40:18;21.00;99.90
25250;DHT22;13201;51.148;13.738;2022-08-19T08:42:55;21.00;99.90
25250;DHT22;13201;51.148;13.738;2022-08-19T08:45:27;20.90;99.90
25250;DHT22;13201;51.148;13.738;2022-08-19T08:47:55;21.00;99.90
25250;DHT22;13201;51.148;13.738;2022-08-19T08:50:29;21.10;99.90
25250;DHT22;13201;51.148;13.738;2022-08-19T08:53:00;21.10;99.90
25250;DHT22;13201;51.148;13.738;2022-08-19T08:55:28;21.20;99.90
25250;DHT22;13201;51.148;13.738;2022-08-19T08:58:01;21.30;99.90
25250;DHT22;13201;51.148;13.738;2022-08-19T09:00:34;21.30;99.90
25250;DHT22;13201;51.148;13.738;2022-08-19T09:03:01;21.30;99.90
25250;DHT22;13201;51.148;13.738;2022-08-19T09:10:53;21.40;99.90
25250;DHT22;13201;51.148;13.738;2022-08-19T09:16:10;21.80;99.90
25250;DHT22;13201;51.148;13.738;2022-08-19T09:21:13;21.60;99.90
25250;DHT22;13201;51.148;13.738;2022-08-19T09:23:39;21.40;99.90
25250;DHT22;13201;51.148;13.738;2022-08-19T09:26:09;21.50;99.90
25250;DHT22;13201;51.148;13.738;2022-08-19T09:28:42;21.70;99.90
25250;DHT22;13201;51.148;13.738;2022-08-19T09:31:16;21.60;99.90
25250;DHT22;13201;51.148;13.738;2022-08-19T09:33:41;21.60;99.90
25250;DHT22;13201;51.148;13.738;2022-08-19T09:36:12;21.60;99.90
25250;DHT22;13201;51.148;13.738;2022-08-19T09:38:39;21.70;99.90
25250;DHT22;13201;51.148;13.738;2022-08-19T09:41:13;21.70;99.90
25250;DHT22;13201;51.148;13.738;2022-08-19T09:43:41;21.70;99.90
25250;DHT22;13201;51.148;13.738;2022-08-19T09:46:08;21.90;99.90
25250;DHT22;13201;51.148;13.738;2022-08-19T09:48:38;22.10;99.90
25250;DHT22;13201;51.148;13.738;2022-08-19T09:51:09;22.10;99.90
25250;DHT22;13201;51.148;13.738;2022-08-19T09:53:36;22.20;99.90
25250;DHT22;13201;51.148;13.738;2022-08-19T09:56:04;22.20;99.90
25250;DHT22;13201;51.148;13.738;2022-08-19T09:58:31;22.30;99.90
25250;DHT22;13201;51.148;13.738;2022-08-19T10:00:58;22.40;99.90
25250;DHT22;13201;51.148;13.738;2022-08-19T10:03:25;22.20;99.90
25250;DHT22;13201;51.148;13.738;2022-08-19T10:05:51;22.10;99.90
25250;DHT22;13201;51.148;13.738;2022-08-19T10:08:20;22.20;99.90
25250;DHT22;13201;51.148;13.738;2022-08-19T10:10:47;22.20;99.90
25250;DHT22;13201;51.148;13.738;2022-08-19T10:13:15;22.30;99.90
25250;DHT22;13201;51.148;13.738;2022-08-19T10:15:41;22.20;99.90
25250;DHT22;13201;51.148;13.738;2022-08-19T10:18:07;22.20;99.90
25250;DHT22;13201;51.148;13.738;2022-08-19T10:20:33;22.70;99.90
25250;DHT22;13201;51.148;13.738;2022-08-19T10:23:02;22.80;99.90
25250;DHT22;13201;51.148;13.738;2022-08-19T10:25:28;23.00;99.90
25250;DHT22;13201;51.148;13.738;2022-08-19T10:27:54;23.30;99.90
25250;DHT22;13201;51.148;13.738;2022-08-19T10:30:19;23.20;99.90
25250;DHT22;13201;51.148;13.738;2022-08-19T10:32:45;23.30;99.90
25250;DHT22;13201;51.148;13.738;2022-08-19T10:35:12;23.30;99.90
25250;DHT22;13201;51.148;13.738;2022-08-19T10:37:38;23.50;99.90
25250;DHT22;13201;51.148;13.738;2022-08-19T10:40:06;23.30;99.90
25250;DHT22;13201;51.148;13.738;2022-08-19T10:42:33;23.20;99.90
25250;DHT22;13201;51.148;13.738;2022-08-19T10:44:59;23.20;99.90
25250;DHT22;13201;51.148;13.738;2022-08-19T10:47:24;23.20;99.90
25250;DHT22;13201;51.148;13.738;2022-08-19T10:49:50;23.20;99.90
25250;DHT22;13201;51.148;13.738;2022-08-19T10:52:34;23.10;99.90
25250;DHT22;13201;51.148;13.738;2022-08-19T10:55:01;23.50;99.90
25250;DHT22;13201;51.148;13.738;2022-08-19T10:57:46;23.30;99.90
25250;DHT22;13201;51.148;13.738;2022-08-19T11:00:12;23.00;99.90
25250;DHT22;13201;51.148;13.738;2022-08-19T11:02:38;22.90;99.90
25250;DHT22;13201;51.148;13.738;2022-08-19T11:05:05;23.00;99.90
25250;DHT22;13201;51.148;13.738;2022-08-19T11:07:32;23.20;99.90
25250;DHT22;13201;51.148;13.738;2022-08-19T11:09:58;23.30;99.90
25250;DHT22;13201;51.148;13.738;2022-08-19T11:12:23;23.30;99.90
25250;DHT22;13201;51.148;13.738;2022-08-19T11:14:50;23.30;99.90
25250;DHT22;13201;51.148;13.738;2022-08-19T11:17:15;23.50;99.90
25250;DHT22;13201;51.148;13.738;2022-08-19T11:19:41;24.10;99.90
25250;DHT22;13201;51.148;13.738;2022-08-19T11:22:08;24.10;99.90
25250;DHT22;13201;51.148;13.738;2022-08-19T11:24:35;24.10;99.90
25250;DHT22;13201;51.148;13.738;2022-08-19T11:27:04;24.20;99.90
25250;DHT22;13201;51.148;13.738;2022-08-19T11:29:31;24.00;99.90
25250;DHT22;13201;51.148;13.738;2022-08-19T11:31:57;23.50;99.90
25250;DHT22;13201;51.148;13.738;2022-08-19T11:34:25;23.50;99.90
25250;DHT22;13201;51.148;13.738;2022-08-19T11:36:53;23.20;99.90
25250;DHT22;13201;51.148;13.738;2022-08-19T11:39:22;23.30;99.90
25250;DHT22;13201;51.148;13.738;2022-08-19T11:41:48;23.30;99.90
25250;DHT22;13201;51.148;13.738;2022-08-19T11:44:14;23.30;99.90
25250;DHT22;13201;51.148;13.738;2022-08-19T11:46:41;23.10;99.90
25250;DHT22;13201;51.148;13.738;2022-08-19T11:49:08;23.00;99.90
25250;DHT22;13201;51.148;13.738;2022-08-19T11:51:35;23.10;99.90
25250;DHT22;13201;51.148;13.738;2022-08-19T11:54:01;23.00;99.90
25250;DHT22;13201;51.148;13.738;2022-08-19T11:56:28;23.00;99.90
25250;DHT22;13201;51.148;13.738;2022-08-19T11:58:54;23.10;99.90
25250;DHT22;13201;51.148;13.738;2022-08-19T12:01:21;22.80;99.90
25250;DHT22;13201;51.148;13.738;2022-08-19T12:03:48;22.90;99.90
25250;DHT22;13201;51.148;13.738;2022-08-19T12:06:26;23.10;99.90
25250;DHT22;13201;51.148;13.738;2022-08-19T12:08:57;23.00;99.90
25250;DHT22;13201;51.148;13.738;2022-08-19T12:11:23;22.70;99.90
25250;DHT22;13201;51.148;13.738;2022-08-19T12:13:49;22.50;99.90
25250;DHT22;13201;51.148;13.738;2022-08-19T12:16:18;22.70;99.90
25250;DHT22;13201;51.148;13.738;2022-08-19T12:18:44;22.80;99.90
25250;DHT22;13201;51.148;13.738;2022-08-19T12:21:13;22.90;99.90
25250;DHT22;13201;51.148;13.738;2022-08-19T12:23:40;22.90;99.90
25250;DHT22;13201;51.148;13.738;2022-08-19T12:26:06;22.90;99.90
25250;DHT22;13201;51.148;13.738;2022-08-19T12:28:31;23.10;99.90
25250;DHT22;13201;51.148;13.738;2022-08-19T12:30:57;23.10;99.90
25250;DHT22;13201;51.148;13.738;2022-08-19T12:33:23;23.20;99.90
25250;DHT22;13201;51.148;13.738;2022-08-19T12:35:52;23.30;99.90
25250;DHT22;13201;51.148;13.738;2022-08-19T12:38:18;23.10;99.90
25250;DHT22;13201;51.148;13.738;2022-08-19T12:40:48;23.30;99.90
25250;DHT22;13201;51.148;13.738;2022-08-19T12:43:14;23.30;99.90
25250;DHT22;13201;51.148;13.738;2022-08-19T12:45:41;23.10;99.90
25250;DHT22;13201;51.148;13.738;2022-08-19T12:48:08;23.60;99.90
25250;DHT22;13201;51.148;13.738;2022-08-19T12:50:33;23.90;99.90
25250;DHT22;13201;51.148;13.738;2022-08-19T12:52:59;24.20;99.90
25250;DHT22;13201;51.148;13.738;2022-08-19T12:55:25;23.80;99.90
25250;DHT22;13201;51.148;13.738;2022-08-19T12:57:50;23.60;99.90
25250;DHT22;13201;51.148;13.738;2022-08-19T13:00:19;23.60;99.90
25250;DHT22;13201;51.148;13.738;2022-08-19T13:02:48;23.50;99.90
25250;DHT22;13201;51.148;13.738;2022-08-19T13:05:20;23.30;99.90
25250;DHT22;13201;51.148;13.738;2022-08-19T13:07:48;23.40;99.90
25250;DHT22;13201;51.148;13.738;2022-08-19T13:10:17;23.30;99.90
25250;DHT22;13201;51.148;13.738;2022-08-19T13:12:45;23.30;99.90
25250;DHT22;13201;51.148;13.738;2022-08-19T13:15:13;23.30;99.90
25250;DHT22;13201;51.148;13.738;2022-08-19T13:17:39;23.30;99.90
25250;DHT22;13201;51.148;13.738;2022-08-19T13:20:06;23.30;99.90
25250;DHT22;13201;51.148;13.738;2022-08-19T13:22:33;23.10;99.90
25250;DHT22;13201;51.148;13.738;2022-08-19T13:25:01;23.00;99.90
25250;DHT22;13201;51.148;13.738;2022-08-19T13:27:27;23.10;99.90
25250;DHT22;13201;51.148;13.738;2022-08-19T13:29:52;23.20;99.90
25250;DHT22;13201;51.148;13.738;2022-08-19T13:32:36;23.30;99.90
25250;DHT22;13201;51.148;13.738;2022-08-19T13:35:20;23.30;99.90
25250;DHT22;13201;51.148;13.738;2022-08-19T13:37:46;22.90;99.90
25250;DHT22;13201;51.148;13.738;2022-08-19T13:40:18;22.80;99.90
25250;DHT22;13201;51.148;13.738;2022-08-19T13:42:48;22.60;99.90
25250;DHT22;13201;51.148;13.738;2022-08-19T13:45:17;22.70;99.90
25250;DHT22;13201;51.148;13.738;2022-08-19T13:47:45;22.90;99.90
25250;DHT22;13201;51.148;13.738;2022-08-19T13:50:17;22.90;99.90
25250;DHT22;13201;51.148;13.738;2022-08-19T13:52:44;22.70;99.90
25250;DHT22;13201;51.148;13.738;2022-08-19T13:55:11;22.60;99.90
25250;DHT22;13201;51.148;13.738;2022-08-19T13:57:37;22.80;99.90
25250;DHT22;13201;51.148;13.738;2022-08-19T14:00:10;22.80;99.90
25250;DHT22;13201;51.148;13.738;2022-08-19T14:02:38;22.90;99.90
25250;DHT22;13201;51.148;13.738;2022-08-19T14:05:06;22.90;99.90
25250;DHT22;13201;51.148;13.738;2022-08-19T14:07:32;23.10;99.90
25250;DHT22;13201;51.148;13.738;2022-08-19T14:09:57;22.80;99.90
25250;DHT22;13201;51.148;13.738;2022-08-19T14:12:23;22.70;99.90
25250;DHT22;13201;51.148;13.738;2022-08-19T14:14:49;22.70;99.90
25250;DHT22;13201;51.148;13.738;2022-08-19T14:17:14;22.70;99.90
25250;DHT22;13201;51.148;13.738;2022-08-19T14:19:41;22.70;99.90
25250;DHT22;13201;51.148;13.738;2022-08-19T14:22:06;22.70;99.90
25250;DHT22;13201;51.148;13.738;2022-08-19T14:24:32;22.60;99.90
25250;DHT22;13201;51.148;13.738;2022-08-19T14:26:58;22.60;99.90
25250;DHT22;13201;51.148;13.738;2022-08-19T14:29:24;22.70;99.90
25250;DHT22;13201;51.148;13.738;2022-08-19T14:31:49;22.70;99.90
25250;DHT22;13201;51.148;13.738;2022-08-19T14:34:15;22.70;99.90
25250;DHT22;13201;51.148;13.738;2022-08-19T14:36:41;22.80;99.90
25250;DHT22;13201;51.148;13.738;2022-08-19T14:39:07;22.90;99.90
25250;DHT22;13201;51.148;13.738;2022-08-19T14:41:34;22.80;99.90
25250;DHT22;13201;51.148;13.738;2022-08-19T14:44:00;22.70;99.90
25250;DHT22;13201;51.148;13.738;2022-08-19T14:46:28;22.70;99.90
25250;DHT22;13201;51.148;13.738;2022-08-19T14:48:54;22.70;99.90
25250;DHT22;13201;51.148;13.738;2022-08-19T14:51:22;22.60;99.90
25250;DHT22;13201;51.148;13.738;2022-08-19T14:53:48;22.60;99.90
25250;DHT22;13201;51.148;13.738;2022-08-19T14:56:17;22.70;99.90
25250;DHT22;13201;51.148;13.738;2022-08-19T14:58:44;22.70;99.90
25250;DHT22;13201;51.148;13.738;2022-08-19T15:01:11;22.70;99.90
25250;DHT22;13201;51.148;13.738;2022-08-19T15:03:38;22.80;99.90
25250;DHT22;13201;51.148;13.738;2022-08-19T15:06:05;22.70;99.90
25250;DHT22;13201;51.148;13.738;2022-08-19T15:08:33;22.80;99.90
25250;DHT22;13201;51.148;13.738;2022-08-19T15:11:01;22.80;99.90
25250;DHT22;13201;51.148;13.738;2022-08-19T15:13:28;23.00;99.90
25250;DHT22;13201;51.148;13.738;2022-08-19T15:15:54;22.90;99.90
25250;DHT22;13201;51.148;13.738;2022-08-19T15:18:20;22.70;99.90
25250;DHT22;13201;51.148;13.738;2022-08-19T15:20:50;22.70;99.90
25250;DHT22;13201;51.148;13.738;2022-08-19T15:23:17;22.60;99.90
25250;DHT22;13201;51.148;13.738;2022-08-19T15:25:43;22.70;99.90
25250;DHT22;13201;51.148;13.738;2022-08-19T15:28:09;22.60;99.90
25250;DHT22;13201;51.148;13.738;2022-08-19T15:30:40;22.70;99.90
25250;DHT22;13201;51.148;13.738;2022-08-19T15:33:06;22.80;99.90
25250;DHT22;13201;51.148;13.738;2022-08-19T15:35:31;22.70;99.90
25250;DHT22;13201;51.148;13.738;2022-08-19T15:37:57;22.70;99.90
25250;DHT22;13201;51.148;13.738;2022-08-19T15:40:25;22.60;99.90
25250;DHT22;13201;51.148;13.738;2022-08-19T15:42:51;22.60;99.90
25250;DHT22;13201;51.148;13.738;2022-08-19T15:45:19;22.60;99.90
25250;DHT22;13201;51.148;13.738;2022-08-19T15:47:46;22.70;99.90
25250;DHT22;13201;51.148;13.738;2022-08-19T15:50:15;22.60;99.90
25250;DHT22;13201;51.148;13.738;2022-08-19T15:52:53;22.70;99.90
25250;DHT22;13201;51.148;13.738;2022-08-19T15:55:25;22.80;99.90
25250;DHT22;13201;51.148;13.738;2022-08-19T15:57:51;22.70;99.90